KMKG/MKG METAR and TAF weather

Enter ICAO airport designator
Station Type Date Time Source
KMKG METAR 2020/07/05 15:55 UTC NOAA

KMKG 051555Z 30007KT 10SM FEW050 SCT250 30/17 A3001 RMK AO2 SLP158 T03000172 $


Station Type Date Time Source
KMKG Decoded METAR 2020/07/05 15:55 UTC NOAA

MUSKEGON COUNTY AIRPORT, MI, United States (KMKG) 43-10N 086-14W 191M
Jul 05, 2020 - 11:55 AM EDT / 2020.07.05 1555 UTC
Wind: from the WNW (300 degrees) at 8 MPH (7 KT):0
Visibility: 10 mile(s):0
Sky conditions: partly cloudy
Temperature: 86.0 F (30.0 C)
Dew Point: 63.0 F (17.2 C)
Relative Humidity: 46%
Pressure (altimeter): 30.01 in. Hg (1016 hPa)
ob: KMKG 051555Z 30007KT 10SM FEW050 SCT250 30/17 A3001 RMK AO2 SLP158 T03000172
cycle: 16

Station Type Date Time Source
KMKG TAF 2020/07/05 12:42 UTC NOAA

TAF KMKG 051140Z 0512/0612 00000KT 3SM HZ SKC
FM051300 25007KT P6SM SCT050
FM060200 00000KT P6SM SKC

Example: see airport list